Almont, Michigan
Current Conditions -  °F | °C
As of 3:34 AM on Friday 24 Oct 2014 (Local Time) from KD95 Reporting Station
Clear Clear  
Wind Chill: 31°   Ceiling: Unl
Heat Index: 31°   Visibility: 7mi
Dew Point: 30°   Wind: 0mph
Humidity: 98%   Direction: NA
Pressure: 30.08"   Gusts: NA
Location:  42.92°N, 83.04°W
Report Text: KD95 240734Z AUTO 00000KT 7SM CLR M01/M01 A3008 RMK AO2 T10061009
Loading
Personal Weather Stations






























Interactive Weather Map
Tropical Storm Tracking
New forecast layout! Learn more

10-Day Weather Forecast

Advertisements
Track Severe Weather on mobile